Time;durP1;ratioP1;P1;durP2;ratioP2;P2;SDS_P1;SDS_P2;PMS_P1;PMS_P2;Temp;Humidity;BMP_temperature;BMP_pressure;BME280_temperature;BME280_humidity;BME280_pressure;Samples;Min_cycle;Max_cycle;Signal;HPM_P1;HPM_P2
2023/08/01 00:00:03;;;;;;;0.10;0.10;;;;;;;22.58;47.25;100774.22;5038542;28;20509;-90
2023/08/01 00:02:28;;;;;;;0.10;0.10;;;;;;;22.46;47.16;100770.97;5038056;28;20020;-90
2023/08/01 00:04:54;;;;;;;0.10;0.10;;;;;;;22.46;47.26;100759.59;5038092;28;20476;-91
2023/08/01 00:07:19;;;;;;;0.10;0.10;;;;;;;22.43;46.78;100762.53;5038331;28;20051;-91
2023/08/01 00:09:45;;;;;;;0.10;0.10;;;;;;;22.41;46.51;100760.03;5037736;28;20043;-94
2023/08/01 00:12:10;;;;;;;0.10;0.10;;;;;;;22.41;46.65;100749.47;5038260;28;20028;-90
2023/08/01 00:14:36;;;;;;;0.10;0.10;;;;;;;22.42;46.60;100743.25;5037868;28;20062;-90
2023/08/01 00:17:01;;;;;;;0.10;0.10;;;;;;;22.53;46.78;100750.13;5037544;28;20074;-92
2023/08/01 00:19:27;;;;;;;0.10;0.10;;;;;;;22.53;46.51;100750.94;5054620;28;20049;-91
2023/08/01 00:21:53;;;;;;;0.10;0.10;;;;;;;22.50;46.54;100740.69;5037917;28;20119;-92
2023/08/01 00:24:18;;;;;;;0.10;0.10;;;;;;;22.54;46.45;100741.22;5054585;28;20029;-90
2023/08/01 00:26:44;;;;;;;0.10;0.10;;;;;;;22.54;47.09;100749.97;5054451;28;20043;-91
2023/08/01 00:29:09;;;;;;;0.10;0.10;;;;;;;22.52;46.66;100753.75;5054173;28;20033;-91
2023/08/01 00:31:34;;;;;;;0.10;0.10;;;;;;;22.47;46.99;100750.69;5054030;28;20021;-89
2023/08/01 00:34:00;;;;;;;0.10;0.10;;;;;;;22.43;46.44;100739.63;5037434;28;20028;-90
2023/08/01 00:36:25;;;;;;;0.10;0.10;;;;;;;22.60;46.38;100746.72;5036530;28;20025;-91
2023/08/01 00:38:51;;;;;;;0.10;0.10;;;;;;;22.66;46.02;100744.47;5037322;28;20032;-90
2023/08/01 00:41:16;;;;;;;0.10;0.10;;;;;;;22.58;46.13;100743.41;5037208;28;20406;-90
2023/08/01 00:43:42;;;;;;;0.10;0.10;;;;;;;22.57;46.11;100751.47;5037492;28;20033;-90
2023/08/01 00:46:08;;;;;;;0.10;0.10;;;;;;;22.48;46.58;100753.19;5037230;28;20025;-92
2023/08/01 00:48:34;;;;;;;0.10;0.10;;;;;;;22.35;47.07;100741.34;5053835;28;20038;-91
2023/08/01 00:51:01;;;;;;;0.10;0.10;;;;;;;22.30;47.34;100744.41;5037292;28;20029;-91
2023/08/01 00:53:26;;;;;;;0.10;0.10;;;;;;;22.11;47.32;100744.53;5037403;28;20033;-92
2023/08/01 00:55:55;;;;;;;0.10;0.10;;;;;;;22.15;48.27;100753.81;5037266;28;20497;-92
2023/08/01 00:58:20;;;;;;;0.10;0.10;;;;;;;22.06;48.48;100747.59;5054326;28;20090;-91
2023/08/01 01:00:46;;;;;;;0.10;0.10;;;;;;;22.01;48.29;100748.00;5036945;28;20028;-90
2023/08/01 01:03:12;;;;;;;0.10;0.10;;;;;;;21.97;48.27;100753.72;5053726;28;20024;-90
2023/08/01 01:05:39;;;;;;;0.10;0.10;;;;;;;21.81;48.59;100749.06;5037076;28;20494;-90
2023/08/01 01:08:04;;;;;;;0.10;0.10;;;;;;;21.92;48.20;100740.97;5036864;28;20099;-89
2023/08/01 01:10:30;;;;;;;0.10;0.10;;;;;;;21.99;48.10;100746.50;5036794;28;20048;-90
2023/08/01 01:12:56;;;;;;;0.10;0.10;;;;;;;21.87;49.28;100740.59;5036772;28;20033;-90
2023/08/01 01:15:21;;;;;;;0.10;0.10;;;;;;;21.73;49.27;100735.81;5036517;28;20051;-90
2023/08/01 01:17:46;;;;;;;0.10;0.10;;;;;;;21.70;49.24;100741.34;5036556;28;20051;-91
2023/08/01 01:20:12;;;;;;;0.10;0.10;;;;;;;21.68;49.98;100740.66;5036895;28;20074;-89
2023/08/01 01:22:38;;;;;;;0.10;0.10;;;;;;;21.52;50.22;100730.72;5036987;28;20126;-89
2023/08/01 01:25:04;;;;;;;0.20;0.17;;;;;;;21.44;50.36;100735.91;5037000;28;20025;-91
2023/08/01 01:27:29;;;;;;;0.10;0.10;;;;;;;21.25;50.60;100722.75;5037202;28;20043;-92
2023/08/01 01:29:55;;;;;;;0.10;0.10;;;;;;;21.26;50.50;100717.38;5036479;28;20029;-91
2023/08/01 01:32:20;;;;;;;0.10;0.10;;;;;;;21.24;50.94;100707.91;5036799;28;20057;-91
2023/08/01 01:34:46;;;;;;;0.10;0.10;;;;;;;21.39;50.66;100711.78;5036536;28;20031;-91
2023/08/01 01:37:11;;;;;;;0.10;0.10;;;;;;;21.23;51.34;100687.84;5036640;28;20051;-90
2023/08/01 01:39:36;;;;;;;0.10;0.10;;;;;;;21.37;51.15;100716.38;5053391;28;20036;-90
2023/08/01 01:42:02;;;;;;;0.10;0.10;;;;;;;21.37;51.38;100722.47;5036915;28;20082;-90
2023/08/01 01:44:28;;;;;;;0.10;0.10;;;;;;;21.33;51.38;100710.56;5036660;28;20023;-90
2023/08/01 01:46:53;;;;;;;0.10;0.10;;;;;;;21.23;51.73;100728.13;5037419;28;20032;-92
2023/08/01 01:49:19;;;;;;;0.10;0.10;;;;;;;21.21;51.91;100724.81;5040856;28;20040;-90
2023/08/01 01:51:44;;;;;;;0.15;0.15;;;;;;;21.18;52.63;100728.56;5040809;28;20035;-92
2023/08/01 01:54:09;;;;;;;0.10;0.10;;;;;;;21.27;52.29;100739.25;5040697;28;20037;-90
2023/08/01 01:56:35;;;;;;;0.10;0.10;;;;;;;21.15;52.46;100735.91;5040717;28;20028;-92
2023/08/01 01:59:01;;;;;;;0.10;0.10;;;;;;;21.04;52.81;100736.03;5073742;28;20035;-93
2023/08/01 02:01:26;;;;;;;0.10;0.10;;;;;;;21.05;53.17;100735.09;5057206;28;20043;-90
2023/08/01 02:03:52;;;;;;;0.10;0.10;;;;;;;20.98;52.76;100731.38;5040562;28;20086;-91
2023/08/01 02:06:17;;;;;;;0.10;0.10;;;;;;;21.01;52.72;100731.06;5057192;28;20425;-90
2023/08/01 02:08:43;;;;;;;0.10;0.10;;;;;;;21.03;53.10;100745.72;5040496;28;20036;-91
2023/08/01 02:11:08;;;;;;;0.10;0.10;;;;;;;20.94;53.59;100738.69;5040514;28;20475;-90
2023/08/01 02:13:34;;;;;;;0.10;0.10;;;;;;;20.99;53.37;100740.91;5039900;28;20029;-89
2023/08/01 02:15:59;;;;;;;0.10;0.10;;;;;;;20.92;53.64;100741.44;5040154;28;20036;-91
2023/08/01 02:18:25;;;;;;;0.10;0.10;;;;;;;20.79;53.49;100738.28;5040038;28;20052;-91
2023/08/01 02:20:50;;;;;;;0.10;0.10;;;;;;;20.78;53.38;100739.25;5040260;28;20500;-91
2023/08/01 02:23:15;;;;;;;0.10;0.10;;;;;;;20.65;54.30;100737.84;5056966;28;20430;-91
2023/08/01 02:25:41;;;;;;;0.10;0.10;;;;;;;20.60;53.88;100730.38;5040177;28;20094;-90
2023/08/01 02:28:07;;;;;;;0.10;0.10;;;;;;;20.62;54.42;100734.53;5039746;28;20032;-89
2023/08/01 02:30:33;;;;;;;0.10;0.10;;;;;;;20.69;54.34;100732.19;5039802;28;20074;-90
2023/08/01 02:32:59;;;;;;;0.10;0.10;;;;;;;20.62;54.56;100723.19;5039909;28;20089;-89
2023/08/01 02:35:24;;;;;;;0.10;0.10;;;;;;;20.58;55.18;100724.44;5039873;28;20033;-91
2023/08/01 02:37:50;;;;;;;0.10;0.10;;;;;;;20.59;55.53;100720.84;5039735;28;20032;-90
2023/08/01 02:40:15;;;;;;;0.10;0.10;;;;;;;20.68;54.97;100734.97;5039947;28;20024;-93
2023/08/01 02:42:41;;;;;;;0.10;0.10;;;;;;;20.70;54.67;100731.22;5039720;28;20131;-91
2023/08/01 02:45:06;;;;;;;0.10;0.10;;;;;;;20.70;54.79;100736.47;5039633;28;20025;-91
2023/08/01 02:47:32;;;;;;;0.10;0.10;;;;;;;20.71;53.93;100726.78;5056168;28;20066;-91
2023/08/01 02:49:57;;;;;;;0.10;0.10;;;;;;;20.71;53.90;100732.88;5039565;28;20020;-91
2023/08/01 02:52:23;;;;;;;0.10;0.10;;;;;;;20.68;54.11;100741.03;5039425;28;20544;-91
2023/08/01 02:54:48;;;;;;;0.10;0.10;;;;;;;20.65;54.50;100736.06;5056098;28;20543;-90
2023/08/01 02:57:13;;;;;;;0.10;0.10;;;;;;;20.58;55.25;100740.22;5039148;28;20099;-91
2023/08/01 02:59:39;;;;;;;0.10;0.10;;;;;;;20.60;54.65;100754.03;5055218;28;20029;-93
2023/08/01 03:02:04;;;;;;;0.10;0.10;;;;;;;20.45;55.10;100745.72;5040032;28;20032;-94
2023/08/01 03:04:30;;;;;;;0.10;0.10;;;;;;;20.58;55.16;100748.91;5056642;28;20028;-93
2023/08/01 03:06:55;;;;;;;0.10;0.10;;;;;;;20.59;54.84;100739.25;5056617;28;20071;-92
2023/08/01 03:09:21;;;;;;;0.10;0.10;;;;;;;20.55;56.53;100732.56;5056163;28;20032;-93
2023/08/01 03:11:46;;;;;;;0.10;0.10;;;;;;;20.76;54.77;100740.38;5056141;28;20036;-93
2023/08/01 03:14:11;;;;;;;0.10;0.10;;;;;;;20.60;54.49;100720.69;5056256;28;20033;-92
2023/08/01 03:16:37;;;;;;;0.10;0.10;;;;;;;20.63;54.80;100730.09;5056389;28;20024;-91
2023/08/01 03:19:04;;;;;;;0.20;0.20;;;;;;;20.48;55.02;100732.31;5039526;28;20045;-93
2023/08/01 03:21:33;;;;;;;0.10;0.10;;;;;;;20.36;55.06;100732.53;5040333;28;20038;-91
2023/08/01 03:23:59;;;;;;;0.10;0.10;;;;;;;20.27;55.28;100731.56;5039606;28;20550;-92
2023/08/01 03:26:25;;;;;;;0.10;0.10;;;;;;;20.10;55.94;100722.50;5039420;28;20020;-92
2023/08/01 03:28:50;;;;;;;0.10;0.10;;;;;;;20.00;56.71;100732.97;5039925;28;20032;-91
2023/08/01 03:31:15;;;;;;;0.15;0.13;;;;;;;19.93;56.75;100731.84;5056035;28;20029;-92
2023/08/01 03:33:41;;;;;;;0.10;0.10;;;;;;;19.86;56.90;100727.25;5039437;28;20035;-91
2023/08/01 03:36:06;;;;;;;0.10;0.10;;;;;;;19.82;57.34;100731.13;5039220;28;20470;-92
2023/08/01 03:38:32;;;;;;;0.10;0.10;;;;;;;19.85;57.29;100731.66;5039385;28;20615;-91
2023/08/01 03:40:57;;;;;;;0.10;0.10;;;;;;;19.83;57.82;100722.28;5040360;28;20025;-93
2023/08/01 03:43:23;;;;;;;0.10;0.10;;;;;;;20.07;57.57;100738.56;5040037;28;20032;-92
2023/08/01 03:45:49;;;;;;;0.10;0.10;;;;;;;20.15;56.24;100730.81;5039138;28;20032;-93
2023/08/01 03:48:15;;;;;;;0.10;0.10;;;;;;;20.10;56.83;100734.81;5056355;28;20119;-91
2023/08/01 03:50:40;;;;;;;0.10;0.10;;;;;;;20.02;57.67;100730.22;5041548;28;20062;-93
2023/08/01 03:53:07;;;;;;;0.10;0.10;;;;;;;20.20;57.69;100733.88;5039280;28;20406;-94
2023/08/01 03:55:32;;;;;;;0.10;0.10;;;;;;;20.44;56.79;100736.16;5038782;28;20116;-92
2023/08/01 03:57:58;;;;;;;0.10;0.10;;;;;;;20.40;55.77;100734.75;5038867;28;20116;-91
2023/08/01 04:00:23;;;;;;;0.10;0.10;;;;;;;20.36;55.98;100737.78;5038257;28;20399;-90
2023/08/01 04:02:49;;;;;;;0.10;0.10;;;;;;;20.04;56.98;100718.63;5038655;28;20029;-93
2023/08/01 04:05:15;;;;;;;0.20;0.20;;;;;;;20.21;56.98;100742.59;5054725;28;20032;-88
2023/08/01 04:07:40;;;;;;;0.10;0.10;;;;;;;20.10;57.08;100738.28;5054891;28;20036;-89
2023/08/01 04:10:06;;;;;;;0.10;0.10;;;;;;;20.04;57.60;100730.91;5053866;28;20029;-87
2023/08/01 04:12:32;;;;;;;0.10;0.10;;;;;;;20.05;58.04;100737.81;5071583;28;20387;-86
2023/08/01 04:14:58;;;;;;;0.10;0.10;;;;;;;20.02;58.19;100743.34;5037282;28;20029;-93
2023/08/01 04:17:25;;;;;;;0.10;0.10;;;;;;;20.02;58.02;100746.81;5039185;28;20055;-88
2023/08/01 04:19:51;;;;;;;0.10;0.10;;;;;;;20.06;58.31;100744.75;5038179;28;20032;-91
2023/08/01 04:22:16;;;;;;;0.10;0.10;;;;;;;20.01;58.26;100747.78;5037649;28;20039;-87
2023/08/01 04:24:42;;;;;;;0.10;0.10;;;;;;;20.06;57.72;100747.41;5036686;28;20021;-90
2023/08/01 04:27:07;;;;;;;0.10;0.10;;;;;;;20.02;58.25;100745.97;5053800;28;20401;-88
2023/08/01 04:29:33;;;;;;;0.10;0.10;;;;;;;20.15;58.48;100751.00;5070257;28;20024;-87
2023/08/01 04:31:58;;;;;;;0.10;0.10;;;;;;;20.43;56.57;100749.44;5054272;28;20028;-89
2023/08/01 04:34:24;;;;;;;0.10;0.10;;;;;;;20.46;56.86;100759.69;5090363;28;20047;-89
2023/08/01 04:36:49;;;;;;;0.10;0.10;;;;;;;20.33;56.81;100755.47;5073974;28;20039;-89
2023/08/01 04:39:15;;;;;;;0.10;0.10;;;;;;;20.35;56.89;100763.22;5064804;28;20521;-89
2023/08/01 04:41:40;;;;;;;0.10;0.10;;;;;;;20.38;57.25;100756.88;5059013;28;20028;-90
2023/08/01 04:44:06;;;;;;;0.10;0.10;;;;;;;20.54;56.89;100767.72;5054067;28;20039;-91
2023/08/01 04:46:32;;;;;;;0.10;0.10;;;;;;;20.55;56.10;100761.47;5036971;28;20032;-89
2023/08/01 04:48:57;;;;;;;0.17;0.17;;;;;;;20.64;56.19;100768.56;5057977;28;20032;-88
2023/08/01 04:51:23;;;;;;;0.13;0.13;;;;;;;20.77;55.62;100771.78;5073304;28;20028;-91
2023/08/01 04:53:48;;;;;;;0.10;0.10;;;;;;;20.69;55.04;100758.47;5075642;28;20024;-87
2023/08/01 04:56:14;;;;;;;0.10;0.10;;;;;;;21.06;55.93;100784.09;5075010;28;20028;-93
2023/08/01 04:58:39;;;;;;;0.10;0.10;;;;;;;21.27;55.77;100787.44;5075485;28;20486;-90
2023/08/01 05:01:07;;;;;;;0.10;0.10;;;;;;;21.53;54.67;100777.13;5090374;28;20379;-91
2023/08/01 05:03:33;;;;;;;0.10;0.10;;;;;;;21.63;53.77;100787.63;5039456;28;20024;-88
2023/08/01 05:05:58;;;;;;;0.10;0.10;;;;;;;21.53;54.32;100777.13;5036719;28;20036;-89
2023/08/01 05:08:24;;;;;;;0.10;0.10;;;;;;;22.15;53.31;100780.16;5036228;28;20040;-92
2023/08/01 05:10:50;;;;;;;0.10;0.10;;;;;;;22.34;52.91;100785.34;5084698;28;20024;-91
2023/08/01 05:13:15;;;;;;;0.20;0.20;;;;;;;22.55;51.96;100780.63;5053602;28;20477;-88
2023/08/01 05:15:43;;;;;;;0.20;0.20;;;;;;;22.34;52.95;100766.88;5061379;28;20935;-87
2023/08/01 05:18:09;;;;;;;0.10;0.10;;;;;;;22.71;52.53;100781.75;5077432;28;20145;-86
2023/08/01 05:20:34;;;;;;;0.10;0.10;;;;;;;22.86;52.63;100783.75;5059195;28;20427;-92
2023/08/01 05:22:59;;;;;;;0.10;0.10;;;;;;;22.99;51.70;100793.09;5041377;28;20103;-89
2023/08/01 05:25:28;;;;;;;0.10;0.10;;;;;;;23.01;51.74;100796.41;5055104;28;20025;-90
2023/08/01 05:27:54;;;;;;;0.10;0.10;;;;;;;23.06;50.88;100795.00;5039137;28;20027;-92
2023/08/01 05:30:19;;;;;;;0.10;0.10;;;;;;;23.20;50.26;100790.97;5056376;28;20029;-91
2023/08/01 05:32:46;;;;;;;0.20;0.20;;;;;;;23.02;49.99;100780.44;5035609;28;20471;-84
2023/08/01 05:35:12;;;;;;;0.10;0.10;;;;;;;23.06;50.16;100779.16;5052736;28;20032;-89
2023/08/01 05:37:37;;;;;;;0.10;0.10;;;;;;;23.15;50.15;100783.53;5055512;28;20405;-86
2023/08/01 05:40:03;;;;;;;0.10;0.10;;;;;;;23.32;50.74;100788.94;5073383;28;20032;-89
2023/08/01 05:42:29;;;;;;;0.10;0.10;;;;;;;23.26;50.54;100777.16;5055850;28;20393;-89
2023/08/01 05:44:54;;;;;;;0.10;0.10;;;;;;;23.32;50.28;100779.22;5055878;28;20040;-90
2023/08/01 05:47:20;;;;;;;0.10;0.10;;;;;;;23.41;49.61;100774.81;5073298;28;20032;-90
2023/08/01 05:49:45;;;;;;;0.20;0.20;;;;;;;23.64;50.56;100775.97;5075898;28;20037;-91
2023/08/01 05:52:11;;;;;;;0.20;0.20;;;;;;;23.86;49.14;100771.97;5036765;28;20047;-91
2023/08/01 05:54:36;;;;;;;0.10;0.10;;;;;;;23.91;49.77;100763.59;5053073;28;20036;-90
2023/08/01 05:57:02;;;;;;;0.10;0.10;;;;;;;24.07;49.25;100773.38;5053026;28;20032;-85
2023/08/01 05:59:27;;;;;;;0.10;0.10;;;;;;;24.07;49.77;100774.22;5052872;28;20394;-92
2023/08/01 06:01:55;;;;;;;0.10;0.10;;;;;;;24.06;49.09;100767.28;5044258;28;20024;-93
2023/08/01 06:04:21;;;;;;;0.10;0.10;;;;;;;24.01;47.79;100761.66;5059022;28;20111;-94
2023/08/01 06:06:46;;;;;;;0.20;0.20;;;;;;;23.90;47.99;100770.69;5060129;28;20050;-92
2023/08/01 06:09:12;;;;;;;0.20;0.20;;;;;;;23.91;47.84;100769.69;5094744;28;20028;-92
2023/08/01 06:11:37;;;;;;;0.20;0.20;;;;;;;23.95;47.64;100763.09;5063520;28;20124;-90
2023/08/01 06:14:02;;;;;;;0.20;0.20;;;;;;;23.88;47.18;100767.34;5040669;28;20028;-93
2023/08/01 06:16:28;;;;;;;0.10;0.10;;;;;;;24.01;46.70;100769.59;5089722;28;20051;-92
2023/08/01 06:18:53;;;;;;;0.10;0.10;;;;;;;23.99;46.41;100766.25;5050828;28;20056;-93
2023/08/01 06:21:19;;;;;;;0.20;0.20;;;;;;;24.03;47.29;100768.44;5054468;28;20020;-93
2023/08/01 06:23:47;;;;;;;0.10;0.10;;;;;;;24.10;47.17;100766.00;5037379;28;20040;-93
2023/08/01 06:26:12;;;;;;;0.10;0.10;;;;;;;24.27;47.24;100769.50;5051203;28;20081;-91
2023/08/01 06:28:38;;;;;;;0.20;0.20;;;;;;;24.48;44.96;100750.56;5070234;28;20048;-90
2023/08/01 06:31:03;;;;;;;0.10;0.10;;;;;;;24.57;46.61;100760.19;5053254;28;20044;-87
2023/08/01 06:33:28;;;;;;;0.10;0.10;;;;;;;24.56;44.08;100753.25;5065286;28;20050;-88
2023/08/01 06:35:54;;;;;;;0.10;0.10;;;;;;;24.71;45.05;100764.84;5060200;28;20036;-90
2023/08/01 06:38:19;;;;;;;0.10;0.10;;;;;;;24.78;44.24;100751.81;5059305;28;20592;-91
2023/08/01 06:40:45;;;;;;;0.10;0.10;;;;;;;24.70;42.64;100751.78;5058764;28;20028;-89
2023/08/01 06:43:10;;;;;;;0.10;0.10;;;;;;;24.78;43.01;100746.50;5067278;28;21348;-86
2023/08/01 06:45:36;;;;;;;0.10;0.10;;;;;;;24.81;43.73;100756.75;5076167;28;20114;-87
2023/08/01 06:48:01;;;;;;;0.10;0.10;;;;;;;24.83;43.39;100758.25;5071823;28;20023;-92
2023/08/01 06:50:27;;;;;;;0.10;0.10;;;;;;;24.95;44.49;100763.22;5038930;28;20490;-88
2023/08/01 06:52:52;;;;;;;0.13;0.13;;;;;;;25.05;43.58;100759.44;5044774;28;20024;-94
2023/08/01 06:55:20;;;;;;;0.10;0.10;;;;;;;25.14;42.41;100768.22;5072222;28;20036;-93
2023/08/01 06:57:46;;;;;;;0.20;0.20;;;;;;;25.11;42.21;100752.66;5056131;28;20497;-94
2023/08/01 07:00:12;;;;;;;0.20;0.20;;;;;;;25.30;42.84;100754.97;5048753;28;20032;-90
2023/08/01 07:02:38;;;;;;;0.10;0.10;;;;;;;25.34;42.94;100756.28;5057754;28;20543;-92
2023/08/01 07:05:04;;;;;;;0.10;0.10;;;;;;;25.46;41.67;100746.97;5042731;28;20024;-89
2023/08/01 07:07:30;;;;;;;0.15;0.15;;;;;;;25.79;42.05;100756.72;5068737;28;20024;-92
2023/08/01 07:09:56;;;;;;;0.20;0.20;;;;;;;25.94;43.34;100755.81;5058758;28;20473;-93
2023/08/01 07:12:21;;;;;;;0.13;0.13;;;;;;;26.03;42.10;100749.47;5078231;28;20082;-93
2023/08/01 07:14:47;;;;;;;0.10;0.10;;;;;;;26.06;41.43;100752.81;5039677;28;20032;-91
2023/08/01 07:17:13;;;;;;;0.10;0.10;;;;;;;26.10;40.62;100746.97;5039635;28;20021;-92
2023/08/01 07:19:39;;;;;;;0.20;0.20;;;;;;;26.00;42.13;100730.44;5077054;28;20048;-89
2023/08/01 07:22:04;;;;;;;0.20;0.20;;;;;;;26.19;41.16;100745.94;5077778;28;20601;-90
2023/08/01 07:24:33;;;;;;;0.20;0.20;;;;;;;26.38;39.60;100739.41;5071699;28;20020;-91
2023/08/01 07:26:59;;;;;;;0.10;0.10;;;;;;;26.24;39.60;100727.66;5069071;28;20028;-89
2023/08/01 07:29:26;;;;;;;0.10;0.10;;;;;;;26.24;39.74;100724.19;5069605;28;20411;-91
2023/08/01 07:31:52;;;;;;;0.20;0.20;;;;;;;26.25;39.47;100731.13;5065656;28;20398;-90
2023/08/01 07:34:18;;;;;;;0.10;0.10;;;;;;;26.25;41.09;100739.09;5076162;28;20100;-93
2023/08/01 07:36:46;;;;;;;0.20;0.20;;;;;;;26.32;38.81;100742.72;5056732;28;20031;-93
2023/08/01 07:39:11;;;;;;;0.20;0.20;;;;;;;26.40;39.66;100745.34;5081766;28;20117;-91
2023/08/01 07:41:37;;;;;;;0.10;0.10;;;;;;;26.45;40.10;100742.16;5049100;28;20481;-92
2023/08/01 07:44:03;;;;;;;0.10;0.10;;;;;;;26.64;40.03;100741.69;5057480;28;20097;-87
2023/08/01 07:46:29;;;;;;;0.10;0.10;;;;;;;26.54;39.60;100720.72;5089879;28;20028;-89
2023/08/01 07:48:55;;;;;;;0.20;0.20;;;;;;;26.67;40.21;100714.00;5074155;28;20146;-89
2023/08/01 07:51:20;;;;;;;0.10;0.10;;;;;;;26.89;39.81;100745.00;5076722;28;20405;-91
2023/08/01 07:53:50;;;;;;;0.10;0.10;;;;;;;27.00;40.25;100736.63;5055212;28;20040;-93
2023/08/01 07:56:15;;;;;;;0.20;0.20;;;;;;;27.09;38.85;100729.44;5073063;28;20489;-88
2023/08/01 07:58:41;;;;;;;0.20;0.20;;;;;;;27.22;38.83;100737.59;5071798;28;20039;-90
2023/08/01 08:01:07;;;;;;;0.10;0.10;;;;;;;27.34;39.03;100725.56;5083892;28;20114;-90
2023/08/01 08:03:33;;;;;;;0.10;0.10;;;;;;;27.30;39.60;100731.41;5095458;28;20078;-90
2023/08/01 08:05:59;;;;;;;0.10;0.10;;;;;;;27.19;40.19;100713.25;5062463;28;20032;-88
2023/08/01 08:08:25;;;;;;;0.20;0.20;;;;;;;27.31;38.29;100712.63;5052899;28;20085;-88
2023/08/01 08:10:50;;;;;;;0.20;0.20;;;;;;;27.59;38.14;100725.28;5082098;28;20028;-89
2023/08/01 08:13:18;;;;;;;0.10;0.10;;;;;;;27.60;38.82;100716.28;5057652;28;20035;-93
2023/08/01 08:15:44;;;;;;;0.20;0.20;;;;;;;27.70;37.91;100716.88;5054987;28;20032;-89
2023/08/01 08:18:12;;;;;;;0.20;0.20;;;;;;;27.69;37.39;100692.13;5082196;28;20129;-94
2023/08/01 08:20:42;;;;;;;0.10;0.10;;;;;;;28.03;38.95;100716.47;5057325;28;20047;-92
2023/08/01 08:23:08;;;;;;;0.20;0.20;;;;;;;28.07;37.01;100715.91;5036176;28;20032;-91
2023/08/01 08:25:34;;;;;;;0.20;0.20;;;;;;;28.13;35.84;100712.50;5053779;28;20093;-92
2023/08/01 08:27:59;;;;;;;0.20;0.20;;;;;;;28.18;37.31;100709.28;5061073;28;20039;-89
2023/08/01 08:30:24;;;;;;;0.20;0.20;;;;;;;28.11;38.28;100709.19;5089412;28;20097;-93
2023/08/01 08:32:50;;;;;;;0.10;0.10;;;;;;;28.13;37.39;100696.56;5056749;28;20028;-88
2023/08/01 08:35:15;;;;;;;0.15;0.15;;;;;;;28.31;37.10;100705.94;5048951;28;20553;-89
2023/08/01 08:37:41;;;;;;;0.20;0.20;;;;;;;28.38;37.94;100714.84;5048979;28;20159;-86
2023/08/01 08:40:11;;;;;;;0.20;0.20;;;;;;;28.46;37.27;100704.06;5036751;28;20079;-88
2023/08/01 08:42:36;;;;;;;0.20;0.20;;;;;;;28.42;37.08;100703.66;5089244;28;20043;-86
2023/08/01 08:45:02;;;;;;;0.10;0.10;;;;;;;28.18;36.60;100702.13;5066197;28;20021;-91
2023/08/01 08:47:28;;;;;;;0.20;0.20;;;;;;;28.49;36.57;100709.84;5072684;28;20051;-85
2023/08/01 08:49:55;;;;;;;0.10;0.10;;;;;;;28.60;38.15;100703.19;5069805;28;20028;-93
2023/08/01 08:52:21;;;;;;;0.20;0.20;;;;;;;28.55;37.27;100701.09;5036305;28;20024;-90
2023/08/01 08:54:46;;;;;;;0.20;0.20;;;;;;;28.71;36.57;100701.84;5055184;28;20039;-86
2023/08/01 08:57:12;;;;;;;0.20;0.20;;;;;;;28.72;37.55;100701.66;5054972;28;20036;-93
2023/08/01 08:59:37;;;;;;;0.20;0.20;;;;;;;28.71;36.66;100678.72;5036084;28;20540;-90
2023/08/01 09:02:04;;;;;;;0.20;0.20;;;;;;;28.92;37.24;100685.06;5055154;28;20437;-91
2023/08/01 09:04:30;;;;;;;0.20;0.20;;;;;;;29.19;36.57;100699.38;5056701;28;20408;-94
2023/08/01 09:07:03;;;;;;;0.20;0.20;;;;;;;29.40;36.40;100689.50;5052912;28;20501;-94
2023/08/01 09:09:28;;;;;;;0.20;0.20;;;;;;;29.51;36.11;100674.81;5037440;28;20032;-90
2023/08/01 09:11:57;;;;;;;0.20;0.20;;;;;;;29.80;36.69;100684.38;5051232;28;20565;-92
2023/08/01 09:14:22;;;;;;;0.20;0.20;;;;;;;30.01;36.37;100685.28;5066674;28;20028;-89
2023/08/01 09:16:48;;;;;;;0.20;0.20;;;;;;;30.18;35.77;100679.38;5070219;28;20563;-90
2023/08/01 09:19:20;;;;;;;0.20;0.20;;;;;;;30.33;36.24;100681.88;5054260;28;20498;-92
2023/08/01 09:21:46;;;;;;;0.20;0.20;;;;;;;30.39;35.65;100665.06;5037325;28;20172;-88
2023/08/01 09:27:08;;;;;;;0.20;0.20;;;;;;;30.44;36.52;100648.44;5066740;28;20045;-90
2023/08/01 09:29:33;;;;;;;0.20;0.20;;;;;;;30.45;35.98;100661.56;5064146;28;20088;-89
2023/08/01 09:31:59;;;;;;;0.20;0.20;;;;;;;30.55;34.96;100655.81;5053747;28;20059;-91
2023/08/01 09:34:26;;;;;;;0.20;0.20;;;;;;;30.72;35.61;100666.94;5033239;28;20032;-95
2023/08/01 09:36:57;;;;;;;0.20;0.20;;;;;;;30.73;35.59;100656.06;5051780;28;20041;-91
2023/08/01 09:39:22;;;;;;;0.20;0.20;;;;;;;30.82;35.83;100651.34;5017519;28;20545;-94
2023/08/01 09:42:02;;;;;;;0.20;0.20;;;;;;;30.83;35.94;100653.78;5018436;28;20037;-93
2023/08/01 09:44:36;;;;;;;0.20;0.20;;;;;;;30.94;35.91;100649.66;5034415;28;20414;-94
2023/08/01 09:47:08;;;;;;;0.20;0.20;;;;;;;30.78;36.22;100640.25;5035467;28;20032;-93
2023/08/01 09:49:34;;;;;;;;;;;;;;;30.84;36.31;100649.28;5033641;28;20048;-89
2023/08/01 09:52:01;;;;;;;0.20;0.20;;;;;;;30.55;36.92;100635.28;5049125;28;19963;-90
2023/08/01 09:54:26;;;;;;;0.20;0.20;;;;;;;30.78;37.36;100639.44;5049933;28;20029;-89
2023/08/01 09:56:53;;;;;;;0.20;0.20;;;;;;;30.96;37.56;100636.09;5041310;28;20040;-94
2023/08/01 09:59:19;;;;;;;0.20;0.20;;;;;;;30.89;39.02;100629.97;5065997;28;20086;-94
2023/08/01 10:01:45;;;;;;;0.20;0.20;;;;;;;30.90;38.16;100629.75;5069917;28;20509;-92
2023/08/01 10:04:10;;;;;;;0.20;0.20;;;;;;;30.87;38.50;100622.13;5053757;28;20043;-93
2023/08/01 10:06:37;;;;;;;0.20;0.20;;;;;;;30.80;39.67;100621.34;5052397;28;20029;-94
2023/08/01 10:09:02;;;;;;;0.20;0.20;;;;;;;30.87;39.65;100619.47;5058152;28;20032;-92
2023/08/01 10:11:29;;;;;;;0.20;0.20;;;;;;;31.07;38.74;100606.91;5061816;28;20036;-95
2023/08/01 10:13:55;;;;;;;0.20;0.20;;;;;;;30.97;39.16;100609.16;5057528;28;20033;-90
2023/08/01 10:16:21;;;;;;;0.20;0.20;;;;;;;30.86;39.67;100596.47;5072297;28;20097;-89
2023/08/01 10:18:46;;;;;;;0.20;0.20;;;;;;;30.98;40.46;100596.66;5071841;28;20110;-86
2023/08/01 10:21:14;;;;;;;0.20;0.20;;;;;;;31.21;39.88;100601.56;5072449;28;20058;-91
2023/08/01 10:23:39;;;;;;;0.20;0.20;;;;;;;30.99;39.75;100599.13;5055827;28;20033;-88
2023/08/01 10:26:08;;;;;;;0.20;0.20;;;;;;;30.83;40.28;100580.88;5071945;28;20044;-91
2023/08/01 10:28:38;;;;;;;0.20;0.20;;;;;;;31.07;40.00;100590.03;5073194;28;20074;-91
2023/08/01 10:31:22;;;;;;;0.20;0.20;;;;;;;31.22;40.91;100587.16;5059654;28;20020;-95
2023/08/01 10:33:48;;;;;;;0.20;0.20;;;;;;;30.93;39.88;100583.94;5052505;28;20476;-91
2023/08/01 10:36:18;;;;;;;0.20;0.20;;;;;;;30.75;40.06;100587.25;5064896;28;20033;-89
2023/08/01 10:38:47;;;;;;;0.20;0.20;;;;;;;31.02;38.97;100577.31;5017911;28;20021;-93
2023/08/01 10:41:27;;;;;;;0.20;0.20;;;;;;;31.11;39.10;100573.41;5022165;28;20024;-94
2023/08/01 10:44:13;;;;;;;0.20;0.20;;;;;;;31.22;40.33;100577.28;5074606;28;20032;-93
2023/08/01 10:46:48;;;;;;;0.20;0.20;;;;;;;31.47;38.24;100566.72;5046124;28;20111;-94
2023/08/01 10:49:15;;;;;;;0.20;0.20;;;;;;;31.17;38.26;100568.22;5093438;28;20027;-92
2023/08/01 10:51:41;;;;;;;0.20;0.20;;;;;;;31.30;38.12;100558.34;5060261;28;20029;-94
2023/08/01 10:54:06;;;;;;;0.20;0.20;;;;;;;31.37;37.66;100552.97;5057274;28;20167;-89
2023/08/01 10:56:32;;;;;;;0.20;0.20;;;;;;;31.53;38.18;100559.66;5041227;28;20021;-91
2023/08/01 10:58:58;;;;;;;0.20;0.20;;;;;;;31.79;36.71;100550.72;5008537;28;20083;-88
2023/08/01 11:01:23;;;;;;;0.20;0.20;;;;;;;31.85;37.46;100553.31;5039709;28;20031;-93
2023/08/01 11:03:50;;;;;;;0.20;0.20;;;;;;;31.76;37.97;100545.78;5045326;28;20044;-94
2023/08/01 11:06:15;;;;;;;0.20;0.20;;;;;;;32.08;37.34;100552.78;5054343;28;20029;-88
2023/08/01 11:08:42;;;;;;;0.20;0.20;;;;;;;32.27;36.81;100552.84;5055520;28;20051;-92
2023/08/01 11:11:17;;;;;;;0.20;0.20;;;;;;;32.15;36.03;100542.84;5065712;28;20032;-95
2023/08/01 11:13:50;;;;;;;0.20;0.20;;;;;;;32.20;35.49;100545.66;5057637;28;20033;-93
2023/08/01 11:16:16;;;;;;;0.20;0.20;;;;;;;31.97;36.83;100532.06;5089742;28;20115;-92
2023/08/01 11:18:45;;;;;;;0.20;0.20;;;;;;;32.17;36.07;100532.72;5055254;28;20060;-89
2023/08/01 11:21:10;;;;;;;0.20;0.20;;;;;;;32.20;36.74;100526.13;5070684;28;20039;-91